Time;durP1;ratioP1;P1;durP2;ratioP2;P2;SDS_P1;SDS_P2;PMS_P1;PMS_P2;Temp;Humidity;BMP_temperature;BMP_pressure;BME280_temperature;BME280_humidity;BME280_pressure;Samples;Min_cycle;Max_cycle;Signal;HPM_P1;HPM_P2
2021/09/06 00:00:21;;;;;;;31.58;22.15;;;11.00;99.90;;;;;;5075526;28;20493;-90
2021/09/06 00:02:48;;;;;;;35.47;22.13;;;10.90;99.90;;;;;;5076363;28;20079;-88
2021/09/06 00:05:15;;;;;;;33.08;21.40;;;10.90;99.90;;;;;;5074807;28;20131;-89
2021/09/06 00:07:45;;;;;;;35.72;22.85;;;10.90;99.90;;;;;;5074912;28;20044;-89
2021/09/06 00:10:25;;;;;;;33.60;21.30;;;10.80;99.90;;;;;;5074657;28;20139;-89
2021/09/06 00:12:52;;;;;;;34.33;22.70;;;10.70;99.90;;;;;;5074685;28;20082;-89
2021/09/06 00:15:19;;;;;;;32.30;21.92;;;10.70;99.90;;;;;;5074643;28;20132;-89
2021/09/06 00:17:45;;;;;;;30.15;21.73;;;10.70;99.90;;;;;;5074348;28;20063;-89
2021/09/06 00:20:13;;;;;;;37.20;22.42;;;10.70;99.90;;;;;;5074760;28;20412;-89
2021/09/06 00:22:39;;;;;;;37.25;23.38;;;10.70;99.90;;;;;;5074267;28;20139;-88
2021/09/06 00:25:06;;;;;;;37.53;23.92;;;10.80;99.90;;;;;;5074457;28;20048;-89
2021/09/06 00:27:34;;;;;;;35.25;22.08;;;10.80;99.90;;;;;;5074719;28;20048;-88
2021/09/06 00:30:02;;;;;;;37.72;24.02;;;10.90;99.90;;;;;;5074551;28;20056;-89
2021/09/06 00:32:28;;;;;;;36.83;23.90;;;10.90;99.90;;;;;;5074374;28;20049;-89
2021/09/06 00:34:55;;;;;;;31.92;23.02;;;11.00;99.90;;;;;;5074241;28;20447;-89
2021/09/06 00:37:22;;;;;;;36.55;24.73;;;11.00;99.90;;;;;;5074160;28;20464;-89
2021/09/06 00:39:49;;;;;;;31.10;21.10;;;11.00;99.90;;;;;;5075453;28;20048;-89
2021/09/06 00:42:16;;;;;;;34.28;22.95;;;11.00;99.90;;;;;;5087277;28;20060;-89
2021/09/06 00:44:43;;;;;;;30.35;21.20;;;11.00;99.90;;;;;;5097615;28;20049;-87
2021/09/06 00:47:09;;;;;;;30.48;22.35;;;11.00;99.90;;;;;;5074298;28;20044;-88
2021/09/06 00:49:36;;;;;;;36.60;23.10;;;11.00;99.90;;;;;;5074819;28;20058;-89
2021/09/06 00:52:03;;;;;;;36.97;22.98;;;11.10;99.90;;;;;;5074225;28;20048;-89
2021/09/06 00:54:30;;;;;;;35.90;21.42;;;11.00;99.90;;;;;;5074894;28;20078;-88
2021/09/06 00:56:57;;;;;;;35.35;22.20;;;11.00;99.90;;;;;;5073664;28;20494;-88
2021/09/06 00:59:25;;;;;;;37.58;22.92;;;11.00;99.90;;;;;;5073891;28;20048;-89
2021/09/06 01:01:51;;;;;;;35.47;22.60;;;11.00;99.90;;;;;;5073867;28;20052;-89
2021/09/06 01:04:19;;;;;;;33.35;23.00;;;11.00;99.90;;;;;;5073744;28;20074;-89
2021/09/06 01:06:46;;;;;;;40.22;24.90;;;11.00;99.90;;;;;;5074361;28;20049;-88
2021/09/06 01:09:12;;;;;;;33.60;24.00;;;11.10;99.90;;;;;;5074548;28;20584;-89
2021/09/06 01:11:39;;;;;;;35.55;23.25;;;11.10;99.90;;;;;;5074854;28;20079;-89
2021/09/06 01:14:06;;;;;;;38.83;24.30;;;11.10;99.90;;;;;;5073711;28;20123;-89
2021/09/06 01:16:33;;;;;;;40.55;25.55;;;11.20;99.90;;;;;;5073217;28;20054;-88
2021/09/06 01:19:00;;;;;;;39.45;24.88;;;11.20;99.90;;;;;;5073582;28;20112;-89
2021/09/06 01:21:26;;;;;;;41.83;24.80;;;11.30;99.90;;;;;;5073432;28;20052;-88
2021/09/06 01:23:53;;;;;;;41.22;25.67;;;11.40;99.90;;;;;;5073309;28;20047;-89
2021/09/06 01:26:20;;;;;;;41.65;25.13;;;11.40;99.90;;;;;;5073375;28;20045;-89
2021/09/06 01:28:47;;;;;;;38.47;25.30;;;11.50;99.90;;;;;;5072756;28;20167;-88
2021/09/06 01:31:13;;;;;;;42.70;26.50;;;11.50;99.90;;;;;;5073430;28;20044;-89
2021/09/06 01:33:40;;;;;;;47.90;26.88;;;11.50;99.90;;;;;;5072965;28;20052;-89
2021/09/06 01:36:07;;;;;;;43.28;27.05;;;11.60;99.90;;;;;;5072898;28;20053;-88
2021/09/06 01:38:34;;;;;;;46.55;28.63;;;11.60;99.90;;;;;;5073003;28;20048;-89
2021/09/06 01:41:01;;;;;;;40.15;25.15;;;11.60;99.90;;;;;;5074150;28;20139;-89
2021/09/06 01:43:28;;;;;;;43.30;26.35;;;11.70;99.90;;;;;;5073102;28;20062;-89
2021/09/06 01:45:55;;;;;;;43.10;25.65;;;11.60;99.90;;;;;;5072908;28;20154;-89
2021/09/06 01:48:22;;;;;;;42.10;25.55;;;11.60;99.90;;;;;;5073877;28;20052;-89
2021/09/06 01:50:48;;;;;;;44.80;25.85;;;11.70;99.90;;;;;;5072566;28;20143;-88
2021/09/06 01:53:15;;;;;;;42.13;24.48;;;11.70;99.90;;;;;;5073854;28;20044;-89
2021/09/06 01:55:42;;;;;;;36.63;24.23;;;11.70;99.90;;;;;;5073252;28;20048;-88
2021/09/06 01:58:09;;;;;;;39.50;25.55;;;11.70;99.90;;;;;;5072742;28;20416;-88
2021/09/06 02:00:36;;;;;;;45.80;26.20;;;11.80;99.90;;;;;;5085569;28;20052;-88
2021/09/06 02:03:02;;;;;;;42.90;26.17;;;11.70;99.90;;;;;;5095833;28;20036;-89
2021/09/06 02:05:30;;;;;;;48.47;25.98;;;11.80;99.90;;;;;;5072747;28;20108;-89
2021/09/06 02:07:56;;;;;;;34.95;24.13;;;11.70;99.90;;;;;;5073400;28;20044;-88
2021/09/06 02:10:23;;;;;;;33.78;22.63;;;11.80;99.90;;;;;;5072377;28;20040;-89
2021/09/06 02:12:50;;;;;;;42.75;24.75;;;11.80;99.90;;;;;;5072177;28;20040;-88
2021/09/06 02:15:17;;;;;;;38.83;25.30;;;11.80;99.90;;;;;;5072195;28;20464;-88
2021/09/06 02:17:43;;;;;;;43.97;25.20;;;11.80;99.90;;;;;;5073243;28;20499;-88
2021/09/06 02:20:11;;;;;;;40.13;24.60;;;11.80;99.90;;;;;;5073281;28;20084;-89
2021/09/06 02:22:38;;;;;;;35.25;24.33;;;11.90;99.90;;;;;;5073503;28;20386;-89
2021/09/06 02:25:05;;;;;;;34.08;23.65;;;11.90;99.90;;;;;;5072091;28;20052;-88
2021/09/06 02:27:33;;;;;;;38.92;23.60;;;11.90;99.90;;;;;;5073424;28;20563;-89
2021/09/06 02:30:00;;;;;;;34.13;23.17;;;11.90;99.90;;;;;;5072060;28;20056;-88
2021/09/06 02:32:26;;;;;;;33.40;22.45;;;11.90;99.90;;;;;;5073641;28;20051;-89
2021/09/06 02:34:53;;;;;;;36.65;23.17;;;11.90;99.90;;;;;;5071968;28;20052;-88
2021/09/06 02:37:20;;;;;;;35.10;23.05;;;11.90;99.90;;;;;;5072184;28;20121;-87
2021/09/06 02:39:47;;;;;;;38.63;25.13;;;11.90;99.90;;;;;;5072539;28;20501;-89
2021/09/06 02:42:13;;;;;;;40.92;26.08;;;11.90;99.90;;;;;;5072541;28;20047;-89
2021/09/06 02:44:40;;;;;;;40.45;25.02;;;11.80;99.90;;;;;;5071891;28;20048;-88
2021/09/06 02:47:07;;;;;;;35.65;23.92;;;11.80;99.90;;;;;;5073167;28;20059;-89
2021/09/06 02:49:34;;;;;;;34.28;23.00;;;11.90;99.90;;;;;;5072252;28;20048;-89
2021/09/06 02:52:01;;;;;;;38.45;24.10;;;11.90;99.90;;;;;;5073195;28;20139;-89
2021/09/06 02:54:28;;;;;;;38.67;24.08;;;11.90;99.90;;;;;;5071937;28;20075;-88
2021/09/06 02:56:54;;;;;;;40.13;23.13;;;11.90;99.90;;;;;;5071794;28;20048;-89
2021/09/06 02:59:21;;;;;;;36.03;22.90;;;12.00;99.90;;;;;;5073083;28;20110;-88
2021/09/06 03:01:48;;;;;;;37.95;23.20;;;12.00;99.90;;;;;;5072017;28;20083;-89
2021/09/06 03:04:15;;;;;;;37.72;22.92;;;12.00;99.90;;;;;;5072192;28;20106;-89
2021/09/06 03:06:42;;;;;;;31.20;21.38;;;11.90;99.90;;;;;;5071990;28;20048;-88
2021/09/06 03:09:09;;;;;;;30.35;20.98;;;12.00;99.90;;;;;;5076032;28;20080;-88
2021/09/06 03:11:35;;;;;;;31.92;21.52;;;11.90;99.90;;;;;;5075889;28;20047;-89
2021/09/06 03:14:02;;;;;;;28.77;20.77;;;11.90;99.90;;;;;;5076620;28;20048;-88
2021/09/06 03:16:29;;;;;;;31.10;21.17;;;11.90;99.90;;;;;;5076871;28;20049;-89
2021/09/06 03:18:56;;;;;;;37.90;22.70;;;11.90;99.90;;;;;;5088720;28;20096;-88
2021/09/06 03:21:22;;;;;;;29.42;21.38;;;11.80;99.90;;;;;;5095160;28;20055;-89
2021/09/06 03:23:50;;;;;;;31.25;22.38;;;11.70;99.90;;;;;;5076183;28;20052;-88
2021/09/06 03:26:17;;;;;;;38.03;23.90;;;11.80;99.90;;;;;;5075811;28;20131;-89
2021/09/06 03:28:43;;;;;;;33.80;22.55;;;11.80;99.90;;;;;;5075514;28;20507;-88
2021/09/06 03:31:10;;;;;;;32.25;22.65;;;11.70;99.90;;;;;;5075962;28;20063;-89
2021/09/06 03:33:37;;;;;;;32.85;22.48;;;11.70;99.90;;;;;;5075562;28;20413;-88
2021/09/06 03:36:04;;;;;;;32.67;22.10;;;11.70;99.90;;;;;;5075974;28;20048;-89
2021/09/06 03:38:32;;;;;;;31.10;22.02;;;11.80;99.90;;;;;;5075353;28;20135;-89
2021/09/06 03:40:59;;;;;;;35.63;22.10;;;11.70;99.90;;;;;;5075277;28;20048;-87
2021/09/06 03:43:26;;;;;;;32.45;22.52;;;11.80;99.90;;;;;;5075388;28;20048;-89
2021/09/06 03:45:53;;;;;;;30.50;21.48;;;11.90;99.90;;;;;;5075513;28;20127;-89
2021/09/06 03:48:20;;;;;;;32.67;22.40;;;11.90;99.90;;;;;;5075443;28;20060;-89
2021/09/06 03:50:47;;;;;;;33.88;20.65;;;11.90;99.90;;;;;;5075323;28;20055;-89
2021/09/06 03:53:14;;;;;;;27.70;19.60;;;11.90;99.90;;;;;;5075236;28;20044;-89
2021/09/06 03:55:40;;;;;;;30.55;20.40;;;11.90;99.90;;;;;;5074680;28;20044;-88
2021/09/06 03:58:07;;;;;;;31.48;21.35;;;11.90;99.90;;;;;;5075322;28;20062;-89
2021/09/06 04:00:34;;;;;;;30.30;20.80;;;11.90;99.90;;;;;;5074859;28;20123;-89
2021/09/06 04:03:01;;;;;;;30.98;21.05;;;11.90;99.90;;;;;;5076024;28;20051;-89
2021/09/06 04:05:27;;;;;;;31.13;20.83;;;11.90;99.90;;;;;;5075844;28;20048;-88
2021/09/06 04:07:54;;;;;;;31.55;21.05;;;11.80;99.90;;;;;;5076181;28;20048;-89
2021/09/06 04:10:21;;;;;;;32.00;21.33;;;11.90;99.90;;;;;;5074792;28;20114;-89
2021/09/06 04:12:48;;;;;;;29.80;20.70;;;11.80;99.90;;;;;;5075677;28;20136;-88
2021/09/06 04:15:14;;;;;;;31.95;20.25;;;11.90;99.90;;;;;;5074765;28;20062;-89
2021/09/06 04:17:41;;;;;;;30.77;21.02;;;11.90;99.90;;;;;;5074606;28;20051;-89
2021/09/06 04:20:09;;;;;;;31.83;19.90;;;11.80;99.90;;;;;;5074421;28;20040;-89
2021/09/06 04:22:38;;;;;;;28.83;20.80;;;11.80;99.90;;;;;;5074718;28;20132;-89
2021/09/06 04:25:09;;;;;;;28.85;21.13;;;11.80;99.90;;;;;;5074361;28;20099;-88
2021/09/06 04:27:36;;;;;;;33.97;20.85;;;11.80;99.90;;;;;;5075796;28;20133;-89
2021/09/06 04:30:04;;;;;;;26.65;19.35;;;11.80;99.90;;;;;;5074303;28;20049;-89
2021/09/06 04:32:31;;;;;;;27.35;19.42;;;11.80;99.90;;;;;;5075622;28;20143;-88
2021/09/06 04:34:58;;;;;;;29.65;20.67;;;11.80;99.90;;;;;;5076047;28;20482;-88
2021/09/06 04:37:26;;;;;;;28.85;20.33;;;11.80;99.90;;;;;;5088936;28;20066;-87
2021/09/06 04:39:53;;;;;;;25.58;19.13;;;11.80;99.90;;;;;;5097250;28;20080;-89
2021/09/06 04:42:20;;;;;;;26.95;19.23;;;11.80;99.90;;;;;;5074270;28;20067;-89
2021/09/06 04:44:47;;;;;;;27.42;18.45;;;11.80;99.90;;;;;;5074948;28;20144;-88
2021/09/06 04:47:15;;;;;;;32.75;20.45;;;11.80;99.90;;;;;;5074237;28;20473;-88
2021/09/06 04:49:41;;;;;;;30.27;19.55;;;11.90;99.90;;;;;;5074220;28;20054;-88
2021/09/06 04:52:26;;;;;;;30.83;19.95;;;11.80;99.90;;;;;;5074050;28;20044;-88
2021/09/06 04:54:52;;;;;;;29.48;20.52;;;11.80;99.90;;;;;;5073813;28;20136;-89
2021/09/06 04:57:19;;;;;;;26.73;19.10;;;11.90;99.90;;;;;;5074988;28;20051;-89
2021/09/06 04:59:46;;;;;;;27.50;18.42;;;11.90;99.90;;;;;;5073922;28;20136;-88
2021/09/06 05:02:12;;;;;;;26.10;18.08;;;11.90;99.90;;;;;;5074568;28;20051;-89
2021/09/06 05:04:40;;;;;;;23.02;17.35;;;11.90;99.90;;;;;;5073560;28;20048;-89
2021/09/06 05:07:06;;;;;;;24.55;15.70;;;12.00;99.90;;;;;;5074683;28;20045;-88
2021/09/06 05:09:33;;;;;;;26.38;17.08;;;12.00;99.90;;;;;;5073660;28;20072;-87
2021/09/06 05:12:00;;;;;;;27.20;17.80;;;11.90;99.90;;;;;;5073692;28;20122;-88
2021/09/06 05:14:26;;;;;;;25.02;17.42;;;12.00;99.90;;;;;;5073641;28;20044;-88
2021/09/06 05:16:53;;;;;;;25.08;17.30;;;12.00;99.90;;;;;;5073232;28;20489;-88
2021/09/06 05:19:20;;;;;;;26.15;17.38;;;12.00;99.90;;;;;;5073345;28;20131;-88
2021/09/06 05:21:47;;;;;;;25.33;16.67;;;12.00;99.90;;;;;;5073483;28;20044;-88
2021/09/06 05:24:14;;;;;;;24.15;16.30;;;12.10;99.90;;;;;;5073555;28;20070;-88
2021/09/06 05:26:41;;;;;;;20.25;15.75;;;12.10;99.90;;;;;;5073156;28;20478;-88
2021/09/06 05:29:07;;;;;;;21.65;16.58;;;12.00;99.90;;;;;;5073299;28;20052;-89
2021/09/06 05:31:34;;;;;;;23.33;17.23;;;12.10;99.90;;;;;;5074013;28;20040;-88
2021/09/06 05:34:01;;;;;;;26.15;17.50;;;12.10;99.90;;;;;;5073153;28;20052;-88
2021/09/06 05:36:28;;;;;;;23.95;16.30;;;12.10;99.90;;;;;;5059504;28;20083;-88
2021/09/06 05:38:54;;;;;;;23.02;17.10;;;12.10;99.90;;;;;;5055901;28;20050;-88
2021/09/06 05:41:21;;;;;;;22.58;16.52;;;12.10;99.90;;;;;;5055962;28;20062;-89
2021/09/06 05:43:48;;;;;;;23.08;16.65;;;12.20;99.90;;;;;;5056469;28;20556;-88
2021/09/06 05:46:15;;;;;;;20.48;16.50;;;12.20;99.90;;;;;;5073680;28;20066;-88
2021/09/06 05:48:42;;;;;;;18.40;15.55;;;12.30;99.90;;;;;;5073606;28;20505;-88
2021/09/06 05:51:09;;;;;;;28.10;19.88;;;12.30;99.90;;;;;;5073656;28;20045;-88
2021/09/06 05:53:36;;;;;;;34.40;25.42;;;12.30;99.90;;;;;;5057580;28;20059;-88
2021/09/06 05:56:03;;;;;;;30.38;24.52;;;12.30;99.90;;;;;;5071814;28;20040;-89
2021/09/06 05:58:30;;;;;;;40.10;35.08;;;12.30;99.90;;;;;;5079450;28;20092;-87
2021/09/06 06:00:57;;;;;;;44.90;39.55;;;12.40;99.90;;;;;;5056137;28;20131;-89
2021/09/06 06:03:24;;;;;;;27.13;23.38;;;12.50;99.90;;;;;;5055167;28;20114;-89
2021/09/06 06:05:51;;;;;;;18.95;16.95;;;12.50;99.90;;;;;;5055641;28;20349;-89
2021/09/06 06:08:18;;;;;;;18.85;16.90;;;12.50;99.90;;;;;;5055949;28;20046;-88
2021/09/06 06:10:45;;;;;;;18.75;16.73;;;12.60;99.90;;;;;;5056069;28;20080;-89
2021/09/06 06:13:11;;;;;;;17.48;15.55;;;12.60;99.90;;;;;;5055509;28;20047;-88
2021/09/06 06:15:38;;;;;;;16.73;13.95;;;12.70;99.90;;;;;;5052254;28;20040;-89
2021/09/06 06:18:25;;;;;;;14.68;13.07;;;12.70;99.90;;;;;;5058979;28;20413;-89
2021/09/06 06:20:52;;;;;;;15.85;13.45;;;12.70;99.90;;;;;;5056090;28;20084;-88
2021/09/06 06:23:18;;;;;;;14.57;12.85;;;12.80;99.90;;;;;;5073771;28;20091;-88
2021/09/06 06:25:45;;;;;;;16.45;12.32;;;12.80;99.90;;;;;;5056149;28;20045;-89
2021/09/06 06:28:12;;;;;;;13.63;12.20;;;12.90;99.90;;;;;;5056121;28;20048;-89
2021/09/06 06:30:39;;;;;;;13.55;11.50;;;12.90;99.90;;;;;;5056118;28;20048;-89
2021/09/06 06:33:05;;;;;;;14.23;12.00;;;13.00;99.90;;;;;;5055459;28;20072;-88
2021/09/06 06:35:33;;;;;;;13.88;11.50;;;13.10;99.90;;;;;;5055902;28;20070;-88
2021/09/06 06:38:00;;;;;;;13.35;12.05;;;13.20;99.90;;;;;;5055289;28;20052;-88
2021/09/06 06:40:29;;;;;;;12.60;11.30;;;13.30;99.90;;;;;;5055525;28;20044;-88
2021/09/06 06:42:56;;;;;;;11.65;10.45;;;13.40;99.90;;;;;;5057828;28;20048;-88
2021/09/06 06:45:22;;;;;;;12.05;10.85;;;13.50;99.90;;;;;;5061594;28;20063;-88
2021/09/06 06:47:49;;;;;;;12.30;10.43;;;13.60;99.90;;;;;;5079918;28;20075;-88
2021/09/06 06:50:16;;;;;;;10.80;9.70;;;13.70;99.90;;;;;;5079974;28;20087;-88
2021/09/06 06:52:43;;;;;;;14.52;11.50;;;14.00;99.90;;;;;;5061457;28;20044;-88
2021/09/06 06:55:10;;;;;;;13.32;11.23;;;14.10;99.90;;;;;;5079715;28;20075;-88
2021/09/06 06:57:37;;;;;;;13.63;10.95;;;14.30;99.90;;;;;;5061811;28;20132;-88
2021/09/06 07:00:05;;;;;;;11.57;10.35;;;14.50;99.90;;;;;;5062632;28;20127;-88
2021/09/06 07:02:32;;;;;;;17.35;10.82;;;14.80;99.90;;;;;;5062024;28;20044;-88
2021/09/06 07:05:04;;;;;;;10.70;9.18;;;15.10;99.90;;;;;;5062697;28;20139;-88
2021/09/06 07:07:32;;;;;;;9.13;8.30;;;15.50;99.90;;;;;;5061039;28;20049;-88
2021/09/06 07:09:59;;;;;;;10.10;8.73;;;15.80;99.90;;;;;;5062722;28;20055;-88
2021/09/06 07:12:26;;;;;;;11.38;9.38;;;15.60;99.90;;;;;;5064688;28;20131;-88
2021/09/06 07:14:53;;;;;;;9.32;8.43;;;15.90;99.90;;;;;;5079684;28;20092;-88
2021/09/06 07:17:20;;;;;;;8.95;8.05;;;16.40;99.90;;;;;;5079519;28;20067;-86
2021/09/06 07:19:47;;;;;;;14.73;8.73;;;16.60;99.90;;;;;;5061712;28;20048;-88
2021/09/06 07:22:15;;;;;;;15.50;9.32;;;17.10;99.90;;;;;;5062168;28;20053;-86
2021/09/06 07:24:42;;;;;;;15.80;9.45;;;17.30;99.90;;;;;;5061635;28;20057;-88
2021/09/06 07:27:09;;;;;;;16.45;9.15;;;17.30;99.90;;;;;;5061981;28;20058;-88
2021/09/06 07:29:39;;;;;;;15.00;9.05;;;17.50;99.90;;;;;;5079449;28;20102;-87
2021/09/06 07:32:07;;;;;;;18.42;9.00;;;17.60;99.90;;;;;;5062150;28;20044;-86
2021/09/06 07:34:37;;;;;;;13.77;9.13;;;17.90;99.90;;;;;;5078979;28;20041;-85
2021/09/06 07:37:05;;;;;;;12.02;7.88;;;18.30;99.90;;;;;;5061368;28;20048;-86
2021/09/06 07:39:33;;;;;;;18.10;8.27;;;18.60;99.90;;;;;;5061281;28;20052;-86
2021/09/06 07:42:02;;;;;;;23.60;8.23;;;18.90;99.90;;;;;;5061545;28;20067;-86
2021/09/06 07:44:29;;;;;;;21.02;8.15;;;19.10;99.90;;;;;;5061224;28;20045;-87
2021/09/06 07:46:57;;;;;;;22.95;10.18;;;19.30;99.90;;;;;;5079353;28;20404;-86
2021/09/06 07:49:23;;;;;;;14.65;7.90;;;19.60;99.90;;;;;;5061821;28;20067;-86
2021/09/06 07:51:53;;;;;;;21.30;8.07;;;20.30;99.90;;;;;;5061681;28;20048;-87
2021/09/06 07:54:21;;;;;;;14.07;7.50;;;21.40;99.90;;;;;;5058985;28;20074;-86
2021/09/06 07:56:51;;;;;;;19.15;7.60;;;22.10;99.90;;;;;;5058379;28;20040;-86
2021/09/06 07:59:19;;;;;;;12.35;6.38;;;23.00;99.90;;;;;;5058692;28;20098;-88
2021/09/06 08:01:46;;;;;;;10.93;6.78;;;25.10;99.90;;;;;;5057928;28;20066;-86
2021/09/06 08:04:14;;;;;;;14.05;6.80;;;26.10;99.90;;;;;;5058240;28;20048;-86
2021/09/06 08:06:41;;;;;;;19.13;7.57;;;26.80;97.30;;;;;;5057470;28;20444;-87
2021/09/06 08:09:08;;;;;;;7.07;6.38;;;27.70;94.50;;;;;;5058053;28;20040;-86
2021/09/06 08:11:34;;;;;;;11.95;6.25;;;28.20;91.00;;;;;;5057807;28;20548;-86
2021/09/06 08:14:01;;;;;;;9.45;6.82;;;29.40;89.20;;;;;;5057906;28;20083;-86
2021/09/06 08:16:28;;;;;;;9.05;6.63;;;29.60;85.00;;;;;;5057852;28;20052;-87
2021/09/06 08:18:55;;;;;;;8.02;6.60;;;30.20;81.60;;;;;;5057901;28;20132;-87
2021/09/06 08:21:22;;;;;;;7.72;6.63;;;29.70;80.70;;;;;;5058222;28;20148;-87
2021/09/06 08:23:48;;;;;;;6.72;6.22;;;30.60;79.20;;;;;;5058130;28;20058;-89
2021/09/06 08:26:15;;;;;;;11.55;6.65;;;30.20;77.40;;;;;;5058060;28;20135;-88
2021/09/06 08:28:42;;;;;;;9.75;6.47;;;30.10;78.00;;;;;;5057480;28;20090;-86
2021/09/06 08:31:09;;;;;;;11.52;6.90;;;29.00;80.00;;;;;;5057775;28;20050;-88
2021/09/06 08:33:35;;;;;;;8.20;7.15;;;28.40;85.00;;;;;;5075779;28;20032;-87
2021/09/06 08:36:02;;;;;;;8.43;6.93;;;29.00;83.70;;;;;;5074029;28;20052;-89
2021/09/06 08:38:33;;;;;;;7.50;6.45;;;29.50;80.40;;;;;;5057825;28;20041;-88
2021/09/06 08:41:01;;;;;;;8.00;6.18;;;29.30;83.20;;;;;;5058031;28;20493;-86
2021/09/06 08:43:29;;;;;;;7.25;6.63;;;30.30;80.70;;;;;;5057709;28;20049;-86
2021/09/06 08:45:56;;;;;;;9.20;6.30;;;30.20;80.40;;;;;;5057705;28;20139;-87
2021/09/06 08:48:23;;;;;;;6.75;6.15;;;30.70;78.90;;;;;;5057848;28;20500;-87
2021/09/06 08:50:50;;;;;;;7.60;6.43;;;31.40;76.10;;;;;;5057368;28;20052;-87
2021/09/06 08:53:17;;;;;;;9.35;7.40;;;31.00;75.90;;;;;;5057674;28;20052;-87
2021/09/06 08:55:44;;;;;;;7.47;6.03;;;31.50;75.60;;;;;;5057390;28;20139;-86
2021/09/06 08:58:30;;;;;;;11.15;6.70;;;32.10;74.30;;;;;;5060269;28;20118;-88
2021/09/06 09:00:57;;;;;;;7.13;6.43;;;32.90;72.10;;;;;;5057804;28;20493;-88
2021/09/06 09:03:26;;;;;;;10.38;6.10;;;32.90;72.10;;;;;;5057624;28;20055;-87
2021/09/06 09:06:03;;;;;;;8.50;6.13;;;33.70;69.80;;;;;;5056922;28;20070;-87
2021/09/06 09:08:30;;;;;;;9.48;6.50;;;34.60;66.70;;;;;;5056801;28;20056;-89
2021/09/06 09:11:02;;;;;;;6.30;5.80;;;34.30;66.90;;;;;;5056906;28;20044;-88
2021/09/06 09:13:37;;;;;;;7.75;6.40;;;34.40;66.40;;;;;;5056587;28;20088;-86
2021/09/06 09:16:06;;;;;;;6.80;6.25;;;33.60;66.00;;;;;;5057053;28;20091;-87
2021/09/06 09:18:34;;;;;;;9.75;6.53;;;33.70;67.00;;;;;;5074325;28;20045;-87
2021/09/06 09:21:07;;;;;;;6.95;6.25;;;34.40;66.40;;;;;;5057712;28;20045;-88
2021/09/06 09:23:43;;;;;;;7.30;6.30;;;34.10;65.60;;;;;;5057022;28;20054;-88
2021/09/06 09:26:10;;;;;;;6.78;6.28;;;34.10;65.10;;;;;;5056657;28;20485;-87
2021/09/06 09:28:44;;;;;;;8.50;6.50;;;34.50;66.00;;;;;;5056891;28;20432;-87
2021/09/06 09:31:17;;;;;;;7.68;6.10;;;35.00;65.90;;;;;;5056750;28;20135;-86
2021/09/06 09:33:56;;;;;;;8.55;6.20;;;35.20;62.90;;;;;;5057292;28;20135;-89
2021/09/06 09:36:34;;;;;;;6.38;5.90;;;34.70;64.30;;;;;;5056168;28;20044;-88
2021/09/06 09:39:10;;;;;;;10.75;6.93;;;34.70;65.90;;;;;;5054668;28;20055;-89
2021/09/06 09:41:38;;;;;;;6.63;5.90;;;34.30;64.50;;;;;;5056345;28;20044;-87
2021/09/06 09:44:10;;;;;;;6.88;5.93;;;35.30;63.90;;;;;;5073907;28;20067;-87
2021/09/06 09:46:39;;;;;;;7.00;6.47;;;35.60;61.20;;;;;;5056281;28;20044;-85
2021/09/06 09:49:14;;;;;;;6.90;6.30;;;36.30;61.80;;;;;;5055963;28;20052;-88
2021/09/06 09:51:41;;;;;;;6.90;6.38;;;36.50;60.00;;;;;;5065373;28;20134;-88
2021/09/06 09:54:08;;;;;;;6.90;6.30;;;36.70;59.10;;;;;;5079430;28;20080;-87
2021/09/06 09:56:35;;;;;;;6.38;5.78;;;36.30;60.90;;;;;;5058072;28;20051;-89
2021/09/06 09:59:02;;;;;;;10.20;6.93;;;37.00;59.50;;;;;;5073340;28;20057;-87
2021/09/06 10:01:35;;;;;;;7.38;6.13;;;37.30;58.10;;;;;;5056214;28;20044;-87
2021/09/06 10:04:03;;;;;;;6.85;6.15;;;37.10;57.50;;;;;;5056521;28;20056;-86
2021/09/06 10:06:32;;;;;;;6.57;6.07;;;37.40;57.30;;;;;;5056030;28;20090;-88
2021/09/06 10:08:59;;;;;;;9.43;6.20;;;36.80;56.70;;;;;;5055726;28;20101;-87
2021/09/06 10:11:39;;;;;;;6.82;6.13;;;36.40;56.40;;;;;;5055910;28;20044;-88
2021/09/06 10:14:21;;;;;;;6.78;6.28;;;36.20;58.00;;;;;;5056080;28;20405;-89
2021/09/06 10:17:01;;;;;;;6.63;6.03;;;36.20;56.60;;;;;;5055235;28;20059;-87
2021/09/06 10:19:50;;;;;;;5.85;5.45;;;36.80;57.40;;;;;;5055989;28;20114;-88
2021/09/06 10:22:25;;;;;;;8.82;6.90;;;37.30;55.80;;;;;;5054657;28;20490;-87
2021/09/06 10:25:06;;;;;;;7.03;6.43;;;38.60;54.50;;;;;;5073292;28;20053;-87
2021/09/06 10:27:36;;;;;;;6.80;6.07;;;39.10;52.30;;;;;;5055868;28;20070;-87
2021/09/06 10:30:09;;;;;;;6.32;5.38;;;38.90;52.80;;;;;;5055282;28;20147;-87
2021/09/06 10:32:44;;;;;;;6.50;6.00;;;39.00;50.70;;;;;;5055626;28;20395;-85
2021/09/06 10:35:22;;;;;;;6.40;5.90;;;38.60;51.30;;;;;;5055605;28;20060;-88
2021/09/06 10:38:13;;;;;;;8.00;6.45;;;38.90;52.20;;;;;;5055766;28;20059;-87
2021/09/06 10:40:45;;;;;;;6.57;6.07;;;38.70;52.30;;;;;;5073140;28;20059;-86
2021/09/06 10:43:17;;;;;;;7.30;6.07;;;39.30;51.40;;;;;;5055327;28;20477;-87
2021/09/06 10:45:47;;;;;;;5.93;5.45;;;39.80;49.40;;;;;;5055242;28;20463;-87
2021/09/06 10:48:20;;;;;;;6.10;5.57;;;40.20;49.90;;;;;;5055450;28;20101;-87
2021/09/06 10:50:48;;;;;;;8.00;5.97;;;39.70;50.50;;;;;;5055133;28;20420;-86
2021/09/06 10:53:23;;;;;;;5.68;5.18;;;39.00;51.30;;;;;;5055374;28;20045;-87
2021/09/06 10:55:52;;;;;;;6.10;4.95;;;40.00;50.40;;;;;;5055808;28;20557;-89
2021/09/06 10:58:24;;;;;;;6.30;5.30;;;40.40;49.30;;;;;;5073250;28;20053;-87
2021/09/06 11:00:53;;;;;;;6.50;5.40;;;40.50;47.70;;;;;;5055397;28;20408;-87
2021/09/06 11:03:23;;;;;;;8.68;6.10;;;40.70;47.90;;;;;;5055590;28;20118;-87
2021/09/06 11:05:51;;;;;;;6.78;6.07;;;39.60;48.90;;;;;;5072768;28;20489;-86
2021/09/06 11:08:25;;;;;;;10.23;6.13;;;38.60;49.30;;;;;;5055504;28;20049;-88
2021/09/06 11:10:55;;;;;;;7.18;6.00;;;38.40;49.60;;;;;;5061743;28;20120;-87
2021/09/06 11:13:32;;;;;;;6.72;5.78;;;36.80;50.30;;;;;;5071434;28;20056;-86
2021/09/06 11:15:59;;;;;;;7.93;6.05;;;36.00;50.00;;;;;;5055819;28;20396;-86
2021/09/06 11:18:32;;;;;;;8.02;5.15;;;35.30;52.70;;;;;;5054375;28;20049;-85
2021/09/06 11:21:00;;;;;;;6.43;5.63;;;35.90;51.00;;;;;;5051757;28;20044;-86
2021/09/06 11:23:39;;;;;;;6.18;5.57;;;36.30;51.70;;;;;;5054382;28;20369;-86
2021/09/06 11:26:08;;;;;;;5.85;5.30;;;36.20;52.90;;;;;;5052640;28;20040;-85
2021/09/06 11:28:44;;;;;;;7.47;6.72;;;35.80;51.50;;;;;;5054951;28;20064;-85
2021/09/06 11:31:20;;;;;;;6.72;5.97;;;34.10;55.20;;;;;;5058963;28;20401;-85
2021/09/06 11:33:57;;;;;;;6.90;6.25;;;32.90;55.10;;;;;;5075944;28;20413;-86
2021/09/06 11:36:24;;;;;;;12.43;7.20;;;32.00;57.70;;;;;;5057128;28;20417;-84
2021/09/06 11:38:51;;;;;;;8.15;6.65;;;31.50;60.30;;;;;;5057896;28;20057;-85
2021/09/06 11:41:24;;;;;;;6.97;6.15;;;31.50;61.30;;;;;;5058774;28;20052;-86
2021/09/06 11:43:51;;;;;;;8.00;6.78;;;31.30;60.10;;;;;;5075700;28;20045;-87
2021/09/06 11:46:18;;;;;;;8.60;7.68;;;31.00;61.10;;;;;;5057980;28;20083;-85
2021/09/06 11:48:48;;;;;;;6.65;6.03;;;30.10;62.50;;;;;;5057010;28;20066;-85
2021/09/06 11:51:17;;;;;;;8.77;6.90;;;30.10;64.10;;;;;;5058741;28;20044;-85
2021/09/06 11:53:58;;;;;;;8.57;7.57;;;30.30;62.50;;;;;;5058736;28;20052;-85
2021/09/06 11:56:26;;;;;;;9.63;7.43;;;30.50;65.00;;;;;;5058608;28;20052;-85
2021/09/06 11:58:58;;;;;;;9.80;7.20;;;30.60;63.80;;;;;;5058604;28;20098;-85
2021/09/06 12:01:26;;;;;;;8.82;7.15;;;30.60;65.90;;;;;;5058745;28;20052;-84
2021/09/06 12:04:08;;;;;;;10.25;7.20;;;30.10;63.40;;;;;;5076128;28;20457;-85
2021/09/06 12:06:39;;;;;;;10.18;6.45;;;30.10;66.10;;;;;;5058357;28;20052;-85
2021/09/06 12:09:07;;;;;;;6.43;5.82;;;30.10;63.00;;;;;;5058314;28;20080;-84
2021/09/06 12:11:55;;;;;;;8.27;6.72;;;30.10;64.70;;;;;;5060257;28;20059;-86
2021/09/06 12:14:22;;;;;;;6.57;6.00;;;30.00;64.10;;;;;;5075763;28;20053;-85
2021/09/06 12:16:59;;;;;;;7.80;6.00;;;29.80;64.30;;;;;;5058063;28;20127;-85
2021/09/06 12:19:27;;;;;;;7.05;6.28;;;29.80;63.40;;;;;;5058342;28;20048;-87
2021/09/06 12:21:54;;;;;;;6.53;5.75;;;29.30;63.00;;;;;;5075998;28;20053;-85
2021/09/06 12:24:23;;;;;;;8.98;6.53;;;28.90;63.80;;;;;;5058032;28;20101;-85
2021/09/06 12:26:52;;;;;;;6.50;5.82;;;28.50;66.30;;;;;;5075552;28;20045;-85
2021/09/06 12:29:33;;;;;;;7.72;6.00;;;28.30;65.60;;;;;;5058971;28;20048;-85
2021/09/06 12:32:02;;;;;;;7.43;6.53;;;28.30;68.60;;;;;;5093369;28;20497;-85
2021/09/06 12:34:30;;;;;;;11.48;6.63;;;28.00;69.20;;;;;;5062770;28;20040;-85
2021/09/06 12:37:03;;;;;;;7.18;6.47;;;27.80;70.00;;;;;;5058418;28;20110;-85
2021/09/06 12:39:32;;;;;;;6.78;6.05;;;27.90;72.70;;;;;;5057593;28;20093;-86
2021/09/06 12:42:00;;;;;;;7.03;6.15;;;27.90;71.60;;;;;;5057372;28;20087;-85